sensor_id;sensor_type;location;lat;lon;timestamp;P1;durP1;ratioP1;P2;durP2;ratioP2
22024;SDS011;11176;51.448;6.650;2022-08-11T00:02:16;4.68;;;2.13;;
22024;SDS011;11176;51.448;6.650;2022-08-11T00:04:53;6.25;;;2.15;;
22024;SDS011;11176;51.448;6.650;2022-08-11T00:07:22;7.28;;;2.10;;
22024;SDS011;11176;51.448;6.650;2022-08-11T00:09:50;3.83;;;2.08;;
22024;SDS011;11176;51.448;6.650;2022-08-11T00:12:18;4.25;;;1.95;;
22024;SDS011;11176;51.448;6.650;2022-08-11T00:14:45;5.18;;;2.10;;
22024;SDS011;11176;51.448;6.650;2022-08-11T00:17:21;5.47;;;1.92;;
22024;SDS011;11176;51.448;6.650;2022-08-11T00:19:53;4.65;;;1.90;;
22024;SDS011;11176;51.448;6.650;2022-08-11T00:22:42;4.70;;;1.95;;
22024;SDS011;11176;51.448;6.650;2022-08-11T00:25:11;3.92;;;1.83;;
22024;SDS011;11176;51.448;6.650;2022-08-11T00:27:40;3.92;;;1.95;;
22024;SDS011;11176;51.448;6.650;2022-08-11T00:30:07;3.83;;;1.77;;
22024;SDS011;11176;51.448;6.650;2022-08-11T00:32:37;3.55;;;1.60;;
22024;SDS011;11176;51.448;6.650;2022-08-11T00:35:06;4.47;;;1.85;;
22024;SDS011;11176;51.448;6.650;2022-08-11T00:37:56;3.05;;;1.75;;
22024;SDS011;11176;51.448;6.650;2022-08-11T00:40:34;3.30;;;1.77;;
22024;SDS011;11176;51.448;6.650;2022-08-11T00:45:54;4.32;;;2.15;;
22024;SDS011;11176;51.448;6.650;2022-08-11T00:48:43;3.97;;;1.92;;
22024;SDS011;11176;51.448;6.650;2022-08-11T00:51:22;4.68;;;2.25;;
22024;SDS011;11176;51.448;6.650;2022-08-11T00:54:38;5.25;;;2.10;;
22024;SDS011;11176;51.448;6.650;2022-08-11T01:02:57;6.88;;;2.15;;
22024;SDS011;11176;51.448;6.650;2022-08-11T01:08:10;5.68;;;2.53;;
22024;SDS011;11176;51.448;6.650;2022-08-11T01:45:58;3.22;;;2.05;;
22024;SDS011;11176;51.448;6.650;2022-08-11T01:51:19;3.08;;;1.85;;
22024;SDS011;11176;51.448;6.650;2022-08-11T01:54:03;3.67;;;1.80;;
22024;SDS011;11176;51.448;6.650;2022-08-11T01:59:30;6.40;;;1.77;;
22024;SDS011;11176;51.448;6.650;2022-08-11T02:05:22;4.03;;;1.88;;
22024;SDS011;11176;51.448;6.650;2022-08-11T02:07:59;5.85;;;2.38;;
22024;SDS011;11176;51.448;6.650;2022-08-11T02:10:43;4.20;;;1.77;;
22024;SDS011;11176;51.448;6.650;2022-08-11T02:13:39;3.72;;;2.03;;
22024;SDS011;11176;51.448;6.650;2022-08-11T02:19:07;3.55;;;2.05;;
22024;SDS011;11176;51.448;6.650;2022-08-11T02:25:39;4.03;;;1.92;;
22024;SDS011;11176;51.448;6.650;2022-08-11T02:28:26;4.60;;;1.85;;
22024;SDS011;11176;51.448;6.650;2022-08-11T02:31:06;4.32;;;2.15;;
22024;SDS011;11176;51.448;6.650;2022-08-11T02:34:30;6.35;;;2.25;;
22024;SDS011;11176;51.448;6.650;2022-08-11T02:45:18;4.57;;;2.17;;
22024;SDS011;11176;51.448;6.650;2022-08-11T02:50:46;3.53;;;1.90;;
22024;SDS011;11176;51.448;6.650;2022-08-11T02:53:25;3.47;;;1.92;;
22024;SDS011;11176;51.448;6.650;2022-08-11T02:59:00;3.72;;;2.00;;
22024;SDS011;11176;51.448;6.650;2022-08-11T03:01:55;3.38;;;2.10;;
22024;SDS011;11176;51.448;6.650;2022-08-11T03:04:36;3.97;;;2.05;;
22024;SDS011;11176;51.448;6.650;2022-08-11T03:10:22;3.78;;;2.00;;
22024;SDS011;11176;51.448;6.650;2022-08-11T03:12:54;3.78;;;1.80;;
22024;SDS011;11176;51.448;6.650;2022-08-11T03:16:05;3.33;;;1.80;;
22024;SDS011;11176;51.448;6.650;2022-08-11T03:21:45;4.90;;;2.05;;
22024;SDS011;11176;51.448;6.650;2022-08-11T03:27:40;6.20;;;2.20;;
22024;SDS011;11176;51.448;6.650;2022-08-11T03:30:17;3.22;;;1.67;;
22024;SDS011;11176;51.448;6.650;2022-08-11T03:36:03;4.95;;;2.05;;
22024;SDS011;11176;51.448;6.650;2022-08-11T03:38:49;4.53;;;2.20;;
22024;SDS011;11176;51.448;6.650;2022-08-11T03:44:48;5.32;;;2.25;;
22024;SDS011;11176;51.448;6.650;2022-08-11T03:53:11;7.30;;;2.20;;
22024;SDS011;11176;51.448;6.650;2022-08-11T04:33:02;7.15;;;2.72;;
22024;SDS011;11176;51.448;6.650;2022-08-11T04:38:47;4.78;;;2.38;;
22024;SDS011;11176;51.448;6.650;2022-08-11T04:45:19;5.95;;;2.50;;
22024;SDS011;11176;51.448;6.650;2022-08-11T04:57:50;6.70;;;2.80;;
22024;SDS011;11176;51.448;6.650;2022-08-11T05:10:19;5.50;;;2.78;;
22024;SDS011;11176;51.448;6.650;2022-08-11T05:12:55;7.93;;;2.78;;
22024;SDS011;11176;51.448;6.650;2022-08-11T05:15:48;4.82;;;2.60;;
22024;SDS011;11176;51.448;6.650;2022-08-11T05:18:40;5.93;;;2.65;;
22024;SDS011;11176;51.448;6.650;2022-08-11T05:21:33;7.47;;;2.63;;
22024;SDS011;11176;51.448;6.650;2022-08-11T05:24:27;7.00;;;3.22;;
22024;SDS011;11176;51.448;6.650;2022-08-11T05:27:17;5.90;;;3.00;;
22024;SDS011;11176;51.448;6.650;2022-08-11T05:30:04;6.45;;;3.00;;
22024;SDS011;11176;51.448;6.650;2022-08-11T05:36:07;6.47;;;2.50;;
22024;SDS011;11176;51.448;6.650;2022-08-11T05:38:43;5.93;;;2.58;;
22024;SDS011;11176;51.448;6.650;2022-08-11T05:41:41;10.95;;;3.20;;
22024;SDS011;11176;51.448;6.650;2022-08-11T05:44:26;23.50;;;6.32;;
22024;SDS011;11176;51.448;6.650;2022-08-11T05:47:23;21.25;;;6.15;;
22024;SDS011;11176;51.448;6.650;2022-08-11T05:50:10;28.85;;;6.70;;
22024;SDS011;11176;51.448;6.650;2022-08-11T05:52:58;20.75;;;6.35;;
22024;SDS011;11176;51.448;6.650;2022-08-11T05:55:45;28.65;;;6.82;;
22024;SDS011;11176;51.448;6.650;2022-08-11T05:58:36;17.73;;;4.60;;
22024;SDS011;11176;51.448;6.650;2022-08-11T06:01:12;6.70;;;3.35;;
22024;SDS011;11176;51.448;6.650;2022-08-11T06:03:48;8.90;;;3.60;;
22024;SDS011;11176;51.448;6.650;2022-08-11T06:06:36;8.68;;;3.53;;
22024;SDS011;11176;51.448;6.650;2022-08-11T06:09:10;25.83;;;7.05;;
22024;SDS011;11176;51.448;6.650;2022-08-11T06:11:40;30.52;;;8.85;;
22024;SDS011;11176;51.448;6.650;2022-08-11T06:14:10;33.33;;;9.35;;
22024;SDS011;11176;51.448;6.650;2022-08-11T06:16:40;40.85;;;10.93;;
22024;SDS011;11176;51.448;6.650;2022-08-11T06:19:08;33.85;;;7.35;;
22024;SDS011;11176;51.448;6.650;2022-08-11T06:21:35;15.35;;;5.10;;
22024;SDS011;11176;51.448;6.650;2022-08-11T06:24:03;10.73;;;4.18;;
22024;SDS011;11176;51.448;6.650;2022-08-11T06:26:40;6.30;;;3.45;;
22024;SDS011;11176;51.448;6.650;2022-08-11T06:29:34;10.90;;;3.20;;
22024;SDS011;11176;51.448;6.650;2022-08-11T06:32:20;7.10;;;3.08;;
22024;SDS011;11176;51.448;6.650;2022-08-11T06:43:20;5.85;;;2.97;;
22024;SDS011;11176;51.448;6.650;2022-08-11T06:48:21;8.18;;;3.70;;
22024;SDS011;11176;51.448;6.650;2022-08-11T06:50:55;9.40;;;3.20;;
22024;SDS011;11176;51.448;6.650;2022-08-11T06:53:48;12.60;;;3.45;;
22024;SDS011;11176;51.448;6.650;2022-08-11T06:56:39;7.60;;;3.50;;
22024;SDS011;11176;51.448;6.650;2022-08-11T06:59:44;5.85;;;3.15;;
22024;SDS011;11176;51.448;6.650;2022-08-11T07:02:45;6.65;;;3.22;;
22024;SDS011;11176;51.448;6.650;2022-08-11T07:05:27;5.63;;;3.08;;
22024;SDS011;11176;51.448;6.650;2022-08-11T07:14:29;5.43;;;3.10;;
22024;SDS011;11176;51.448;6.650;2022-08-11T07:17:20;8.63;;;3.30;;
22024;SDS011;11176;51.448;6.650;2022-08-11T07:19:52;8.32;;;2.90;;
22024;SDS011;11176;51.448;6.650;2022-08-11T07:22:39;9.05;;;3.13;;
22024;SDS011;11176;51.448;6.650;2022-08-11T07:25:27;7.85;;;2.58;;
22024;SDS011;11176;51.448;6.650;2022-08-11T07:28:17;10.95;;;3.20;;
22024;SDS011;11176;51.448;6.650;2022-08-11T07:31:12;6.63;;;2.67;;
22024;SDS011;11176;51.448;6.650;2022-08-11T07:33:50;5.95;;;2.90;;
22024;SDS011;11176;51.448;6.650;2022-08-11T07:36:39;7.32;;;3.35;;
22024;SDS011;11176;51.448;6.650;2022-08-11T07:39:09;7.60;;;2.80;;
22024;SDS011;11176;51.448;6.650;2022-08-11T07:41:42;5.53;;;2.92;;
22024;SDS011;11176;51.448;6.650;2022-08-11T07:44:10;6.68;;;3.13;;
22024;SDS011;11176;51.448;6.650;2022-08-11T07:46:40;6.13;;;3.20;;
22024;SDS011;11176;51.448;6.650;2022-08-11T07:49:27;5.18;;;2.92;;
22024;SDS011;11176;51.448;6.650;2022-08-11T07:52:14;9.00;;;2.72;;
22024;SDS011;11176;51.448;6.650;2022-08-11T07:57:35;8.05;;;3.05;;
22024;SDS011;11176;51.448;6.650;2022-08-11T08:00:42;7.75;;;2.80;;
22024;SDS011;11176;51.448;6.650;2022-08-11T08:03:46;5.53;;;2.90;;
22024;SDS011;11176;51.448;6.650;2022-08-11T08:06:32;8.25;;;3.03;;
22024;SDS011;11176;51.448;6.650;2022-08-11T08:09:19;10.00;;;3.20;;
22024;SDS011;11176;51.448;6.650;2022-08-11T08:12:05;8.93;;;3.17;;
22024;SDS011;11176;51.448;6.650;2022-08-11T08:14:52;7.75;;;3.05;;
22024;SDS011;11176;51.448;6.650;2022-08-11T08:17:40;5.88;;;3.00;;
22024;SDS011;11176;51.448;6.650;2022-08-11T08:20:37;8.35;;;3.08;;
22024;SDS011;11176;51.448;6.650;2022-08-11T08:23:04;10.10;;;3.30;;
22024;SDS011;11176;51.448;6.650;2022-08-11T08:25:33;8.15;;;3.40;;
22024;SDS011;11176;51.448;6.650;2022-08-11T08:28:03;7.90;;;3.95;;
22024;SDS011;11176;51.448;6.650;2022-08-11T08:30:32;8.65;;;3.15;;
22024;SDS011;11176;51.448;6.650;2022-08-11T08:35:48;11.68;;;3.67;;
22024;SDS011;11176;51.448;6.650;2022-08-11T08:38:37;9.73;;;3.47;;
22024;SDS011;11176;51.448;6.650;2022-08-11T08:41:19;9.60;;;3.13;;
22024;SDS011;11176;51.448;6.650;2022-08-11T08:43:49;6.18;;;3.25;;
22024;SDS011;11176;51.448;6.650;2022-08-11T08:46:19;6.38;;;3.17;;
22024;SDS011;11176;51.448;6.650;2022-08-11T08:48:50;8.35;;;3.85;;
22024;SDS011;11176;51.448;6.650;2022-08-11T08:51:18;7.38;;;2.95;;
22024;SDS011;11176;51.448;6.650;2022-08-11T08:54:21;13.85;;;3.42;;
22024;SDS011;11176;51.448;6.650;2022-08-11T08:56:54;10.20;;;3.30;;
22024;SDS011;11176;51.448;6.650;2022-08-11T08:59:23;7.00;;;3.15;;
22024;SDS011;11176;51.448;6.650;2022-08-11T09:02:12;6.28;;;2.90;;
22024;SDS011;11176;51.448;6.650;2022-08-11T09:04:39;9.80;;;3.30;;
22024;SDS011;11176;51.448;6.650;2022-08-11T09:07:11;9.15;;;2.60;;
22024;SDS011;11176;51.448;6.650;2022-08-11T09:09:41;7.15;;;2.85;;
22024;SDS011;11176;51.448;6.650;2022-08-11T09:12:10;5.55;;;2.50;;
22024;SDS011;11176;51.448;6.650;2022-08-11T09:14:38;7.65;;;2.45;;
22024;SDS011;11176;51.448;6.650;2022-08-11T09:17:29;5.80;;;2.72;;
22024;SDS011;11176;51.448;6.650;2022-08-11T09:20:12;7.60;;;2.70;;
22024;SDS011;11176;51.448;6.650;2022-08-11T09:22:40;8.57;;;2.88;;
22024;SDS011;11176;51.448;6.650;2022-08-11T09:25:48;4.50;;;2.40;;
22024;SDS011;11176;51.448;6.650;2022-08-11T09:28:40;6.03;;;2.75;;
22024;SDS011;11176;51.448;6.650;2022-08-11T09:31:08;6.57;;;2.65;;
22024;SDS011;11176;51.448;6.650;2022-08-11T09:33:39;5.78;;;2.45;;
22024;SDS011;11176;51.448;6.650;2022-08-11T09:36:08;4.78;;;2.45;;
22024;SDS011;11176;51.448;6.650;2022-08-11T09:38:54;6.93;;;2.92;;
22024;SDS011;11176;51.448;6.650;2022-08-11T09:41:41;5.85;;;2.60;;
22024;SDS011;11176;51.448;6.650;2022-08-11T09:44:29;6.15;;;2.80;;
22024;SDS011;11176;51.448;6.650;2022-08-11T09:49:56;6.13;;;2.72;;
22024;SDS011;11176;51.448;6.650;2022-08-11T09:52:27;7.20;;;2.78;;
22024;SDS011;11176;51.448;6.650;2022-08-11T09:54:56;7.55;;;2.63;;
22024;SDS011;11176;51.448;6.650;2022-08-11T09:57:24;7.32;;;2.55;;
22024;SDS011;11176;51.448;6.650;2022-08-11T10:00:11;4.80;;;2.50;;
22024;SDS011;11176;51.448;6.650;2022-08-11T10:02:43;5.20;;;1.95;;
22024;SDS011;11176;51.448;6.650;2022-08-11T10:05:14;6.15;;;1.85;;
22024;SDS011;11176;51.448;6.650;2022-08-11T10:08:03;5.13;;;2.20;;
22024;SDS011;11176;51.448;6.650;2022-08-11T10:10:33;3.28;;;1.88;;
22024;SDS011;11176;51.448;6.650;2022-08-11T10:13:02;5.75;;;2.10;;
22024;SDS011;11176;51.448;6.650;2022-08-11T10:15:53;5.55;;;2.20;;
22024;SDS011;11176;51.448;6.650;2022-08-11T10:18:40;4.32;;;1.92;;
22024;SDS011;11176;51.448;6.650;2022-08-11T10:21:16;6.05;;;2.20;;
22024;SDS011;11176;51.448;6.650;2022-08-11T10:24:06;3.70;;;2.22;;
22024;SDS011;11176;51.448;6.650;2022-08-11T10:26:53;6.95;;;2.00;;
22024;SDS011;11176;51.448;6.650;2022-08-11T10:29:29;5.53;;;1.92;;
22024;SDS011;11176;51.448;6.650;2022-08-11T10:32:19;4.15;;;1.77;;
22024;SDS011;11176;51.448;6.650;2022-08-11T10:35:25;4.03;;;2.20;;
22024;SDS011;11176;51.448;6.650;2022-08-11T10:37:53;3.90;;;1.98;;
22024;SDS011;11176;51.448;6.650;2022-08-11T10:40:34;3.65;;;2.03;;
22024;SDS011;11176;51.448;6.650;2022-08-11T10:43:05;4.10;;;1.52;;
22024;SDS011;11176;51.448;6.650;2022-08-11T10:45:43;4.60;;;1.77;;
22024;SDS011;11176;51.448;6.650;2022-08-11T10:48:30;4.40;;;1.95;;
22024;SDS011;11176;51.448;6.650;2022-08-11T10:51:01;4.93;;;2.22;;
22024;SDS011;11176;51.448;6.650;2022-08-11T10:53:57;3.67;;;2.10;;
22024;SDS011;11176;51.448;6.650;2022-08-11T10:59:27;5.78;;;2.50;;
22024;SDS011;11176;51.448;6.650;2022-08-11T11:01:55;4.28;;;2.10;;
22024;SDS011;11176;51.448;6.650;2022-08-11T11:07:37;3.90;;;1.90;;
22024;SDS011;11176;51.448;6.650;2022-08-11T11:10:12;4.90;;;1.90;;
22024;SDS011;11176;51.448;6.650;2022-08-11T11:12:43;2.50;;;1.70;;
22024;SDS011;11176;51.448;6.650;2022-08-11T11:15:31;5.30;;;1.88;;
22024;SDS011;11176;51.448;6.650;2022-08-11T11:18:21;5.10;;;1.85;;
22024;SDS011;11176;51.448;6.650;2022-08-11T11:21:00;3.83;;;2.10;;
22024;SDS011;11176;51.448;6.650;2022-08-11T11:37:25;5.57;;;2.60;;
22024;SDS011;11176;51.448;6.650;2022-08-11T11:39:54;4.07;;;2.20;;
22024;SDS011;11176;51.448;6.650;2022-08-11T11:42:22;4.70;;;2.20;;
22024;SDS011;11176;51.448;6.650;2022-08-11T11:44:50;2.97;;;1.80;;
22024;SDS011;11176;51.448;6.650;2022-08-11T11:47:21;5.53;;;2.22;;
22024;SDS011;11176;51.448;6.650;2022-08-11T11:49:48;4.15;;;1.92;;
22024;SDS011;11176;51.448;6.650;2022-08-11T11:52:16;3.55;;;1.85;;
22024;SDS011;11176;51.448;6.650;2022-08-11T11:54:45;3.33;;;1.90;;
22024;SDS011;11176;51.448;6.650;2022-08-11T11:57:16;5.03;;;2.35;;
22024;SDS011;11176;51.448;6.650;2022-08-11T12:00:07;7.13;;;2.05;;
22024;SDS011;11176;51.448;6.650;2022-08-11T12:03:00;3.90;;;2.15;;
22024;SDS011;11176;51.448;6.650;2022-08-11T12:05:28;3.65;;;2.10;;
22024;SDS011;11176;51.448;6.650;2022-08-11T12:07:58;5.82;;;2.08;;
22024;SDS011;11176;51.448;6.650;2022-08-11T12:10:43;6.53;;;1.73;;
22024;SDS011;11176;51.448;6.650;2022-08-11T12:13:12;2.92;;;1.48;;
22024;SDS011;11176;51.448;6.650;2022-08-11T12:16:00;3.88;;;2.00;;
22024;SDS011;11176;51.448;6.650;2022-08-11T12:18:50;3.30;;;1.95;;
22024;SDS011;11176;51.448;6.650;2022-08-11T12:21:19;3.85;;;1.92;;
22024;SDS011;11176;51.448;6.650;2022-08-11T12:23:47;4.97;;;1.75;;
22024;SDS011;11176;51.448;6.650;2022-08-11T12:26:33;3.50;;;1.90;;
22024;SDS011;11176;51.448;6.650;2022-08-11T12:29:39;3.70;;;1.77;;
22024;SDS011;11176;51.448;6.650;2022-08-11T12:32:09;3.28;;;1.73;;
22024;SDS011;11176;51.448;6.650;2022-08-11T12:34:36;2.97;;;1.50;;
22024;SDS011;11176;51.448;6.650;2022-08-11T12:37:02;4.30;;;1.90;;
22024;SDS011;11176;51.448;6.650;2022-08-11T12:39:33;3.63;;;2.10;;
22024;SDS011;11176;51.448;6.650;2022-08-11T12:42:40;3.88;;;1.67;;
22024;SDS011;11176;51.448;6.650;2022-08-11T12:45:33;3.95;;;1.83;;
22024;SDS011;11176;51.448;6.650;2022-08-11T12:48:17;4.43;;;1.65;;
22024;SDS011;11176;51.448;6.650;2022-08-11T12:51:25;2.22;;;1.33;;
22024;SDS011;11176;51.448;6.650;2022-08-11T12:57:33;2.85;;;1.70;;
22024;SDS011;11176;51.448;6.650;2022-08-11T13:00:20;3.42;;;1.70;;
22024;SDS011;11176;51.448;6.650;2022-08-11T13:03:08;4.00;;;1.80;;
22024;SDS011;11176;51.448;6.650;2022-08-11T13:05:56;4.10;;;1.50;;
22024;SDS011;11176;51.448;6.650;2022-08-11T13:08:25;4.32;;;1.70;;
22024;SDS011;11176;51.448;6.650;2022-08-11T13:10:55;4.35;;;1.77;;
22024;SDS011;11176;51.448;6.650;2022-08-11T13:14:16;2.78;;;1.60;;
22024;SDS011;11176;51.448;6.650;2022-08-11T13:16:43;3.72;;;1.83;;
22024;SDS011;11176;51.448;6.650;2022-08-11T13:19:30;2.33;;;1.38;;
22024;SDS011;11176;51.448;6.650;2022-08-11T13:21:59;4.60;;;1.52;;
22024;SDS011;11176;51.448;6.650;2022-08-11T13:24:27;2.20;;;1.30;;
22024;SDS011;11176;51.448;6.650;2022-08-11T13:26:55;2.90;;;1.30;;
22024;SDS011;11176;51.448;6.650;2022-08-11T13:29:23;2.42;;;1.50;;
22024;SDS011;11176;51.448;6.650;2022-08-11T13:31:52;2.92;;;1.63;;
22024;SDS011;11176;51.448;6.650;2022-08-11T13:34:19;2.35;;;1.40;;
22024;SDS011;11176;51.448;6.650;2022-08-11T13:36:49;4.05;;;1.88;;
22024;SDS011;11176;51.448;6.650;2022-08-11T13:39:19;4.18;;;1.38;;
22024;SDS011;11176;51.448;6.650;2022-08-11T13:41:50;3.33;;;1.30;;
22024;SDS011;11176;51.448;6.650;2022-08-11T13:44:18;2.80;;;1.58;;
22024;SDS011;11176;51.448;6.650;2022-08-11T13:46:51;3.15;;;1.55;;
22024;SDS011;11176;51.448;6.650;2022-08-11T13:49:23;2.05;;;1.30;;
22024;SDS011;11176;51.448;6.650;2022-08-11T13:51:50;3.08;;;1.50;;
22024;SDS011;11176;51.448;6.650;2022-08-11T13:54:20;3.95;;;1.50;;
22024;SDS011;11176;51.448;6.650;2022-08-11T13:56:49;5.85;;;1.90;;
22024;SDS011;11176;51.448;6.650;2022-08-11T13:59:19;2.58;;;1.40;;
22024;SDS011;11176;51.448;6.650;2022-08-11T14:01:55;3.33;;;1.40;;
22024;SDS011;11176;51.448;6.650;2022-08-11T14:04:47;2.50;;;1.45;;
22024;SDS011;11176;51.448;6.650;2022-08-11T14:07:20;1.67;;;1.15;;
22024;SDS011;11176;51.448;6.650;2022-08-11T14:09:51;2.17;;;1.25;;
22024;SDS011;11176;51.448;6.650;2022-08-11T14:12:22;2.67;;;1.35;;
22024;SDS011;11176;51.448;6.650;2022-08-11T14:15:20;2.65;;;1.20;;
22024;SDS011;11176;51.448;6.650;2022-08-11T14:17:51;2.33;;;1.20;;
22024;SDS011;11176;51.448;6.650;2022-08-11T14:20:41;2.30;;;1.40;;
22024;SDS011;11176;51.448;6.650;2022-08-11T14:23:30;3.00;;;1.50;;
22024;SDS011;11176;51.448;6.650;2022-08-11T14:26:01;4.75;;;1.60;;
22024;SDS011;11176;51.448;6.650;2022-08-11T14:28:46;2.05;;;1.10;;
22024;SDS011;11176;51.448;6.650;2022-08-11T14:31:13;1.88;;;1.20;;
22024;SDS011;11176;51.448;6.650;2022-08-11T14:33:41;2.40;;;1.10;;
22024;SDS011;11176;51.448;6.650;2022-08-11T14:36:32;3.08;;;1.38;;
22024;SDS011;11176;51.448;6.650;2022-08-11T14:39:02;2.45;;;1.20;;
22024;SDS011;11176;51.448;6.650;2022-08-11T14:41:40;3.15;;;1.50;;
22024;SDS011;11176;51.448;6.650;2022-08-11T14:44:38;2.13;;;1.40;;
22024;SDS011;11176;51.448;6.650;2022-08-11T14:47:27;1.55;;;1.02;;
22024;SDS011;11176;51.448;6.650;2022-08-11T14:49:56;2.60;;;1.70;;
22024;SDS011;11176;51.448;6.650;2022-08-11T14:52:38;3.15;;;1.10;;
22024;SDS011;11176;51.448;6.650;2022-08-11T14:55:11;2.25;;;1.20;;
22024;SDS011;11176;51.448;6.650;2022-08-11T14:57:57;2.20;;;1.23;;
22024;SDS011;11176;51.448;6.650;2022-08-11T15:00:25;3.35;;;1.52;;
22024;SDS011;11176;51.448;6.650;2022-08-11T15:02:52;2.65;;;1.27;;
22024;SDS011;11176;51.448;6.650;2022-08-11T15:08:04;3.13;;;1.55;;
22024;SDS011;11176;51.448;6.650;2022-08-11T15:10:32;2.38;;;1.20;;
22024;SDS011;11176;51.448;6.650;2022-08-11T15:12:59;2.58;;;1.50;;
22024;SDS011;11176;51.448;6.650;2022-08-11T15:15:26;2.25;;;1.38;;
22024;SDS011;11176;51.448;6.650;2022-08-11T15:18:12;1.95;;;1.15;;
22024;SDS011;11176;51.448;6.650;2022-08-11T15:20:42;4.70;;;1.98;;
22024;SDS011;11176;51.448;6.650;2022-08-11T15:23:28;4.82;;;2.25;;
22024;SDS011;11176;51.448;6.650;2022-08-11T15:29:23;2.60;;;1.60;;
22024;SDS011;11176;51.448;6.650;2022-08-11T15:32:12;3.35;;;1.48;;
22024;SDS011;11176;51.448;6.650;2022-08-11T15:34:52;3.85;;;1.60;;
22024;SDS011;11176;51.448;6.650;2022-08-11T15:37:42;2.63;;;1.15;;
22024;SDS011;11176;51.448;6.650;2022-08-11T15:43:10;4.60;;;1.80;;
22024;SDS011;11176;51.448;6.650;2022-08-11T15:46:10;2.75;;;1.55;;
22024;SDS011;11176;51.448;6.650;2022-08-11T15:48:50;1.90;;;1.20;;
22024;SDS011;11176;51.448;6.650;2022-08-11T15:51:33;2.67;;;1.50;;
22024;SDS011;11176;51.448;6.650;2022-08-11T15:54:04;4.68;;;1.70;;
22024;SDS011;11176;51.448;6.650;2022-08-11T15:56:35;1.98;;;1.27;;
22024;SDS011;11176;51.448;6.650;2022-08-11T15:59:05;3.33;;;1.58;;
22024;SDS011;11176;51.448;6.650;2022-08-11T16:02:10;3.35;;;1.33;;
22024;SDS011;11176;51.448;6.650;2022-08-11T16:04:58;1.90;;;1.30;;
22024;SDS011;11176;51.448;6.650;2022-08-11T16:07:30;2.22;;;1.30;;
22024;SDS011;11176;51.448;6.650;2022-08-11T16:10:10;1.60;;;1.00;;
22024;SDS011;11176;51.448;6.650;2022-08-11T16:12:45;3.13;;;1.60;;
22024;SDS011;11176;51.448;6.650;2022-08-11T16:15:38;2.00;;;1.27;;
22024;SDS011;11176;51.448;6.650;2022-08-11T16:18:27;2.33;;;1.40;;
22024;SDS011;11176;51.448;6.650;2022-08-11T16:21:12;6.15;;;1.80;;
22024;SDS011;11176;51.448;6.650;2022-08-11T16:24:00;3.13;;;1.40;;
22024;SDS011;11176;51.448;6.650;2022-08-11T16:26:28;3.50;;;1.70;;
22024;SDS011;11176;51.448;6.650;2022-08-11T16:29:16;2.05;;;1.30;;
22024;SDS011;11176;51.448;6.650;2022-08-11T16:31:44;2.50;;;1.33;;
22024;SDS011;11176;51.448;6.650;2022-08-11T16:34:33;3.20;;;1.42;;
22024;SDS011;11176;51.448;6.650;2022-08-11T16:37:22;2.33;;;1.50;;
22024;SDS011;11176;51.448;6.650;2022-08-11T16:40:08;4.03;;;1.33;;
22024;SDS011;11176;51.448;6.650;2022-08-11T16:42:36;2.10;;;1.00;;
22024;SDS011;11176;51.448;6.650;2022-08-11T16:45:36;2.25;;;1.23;;
22024;SDS011;11176;51.448;6.650;2022-08-11T16:48:25;2.53;;;1.20;;
22024;SDS011;11176;51.448;6.650;2022-08-11T16:51:07;2.20;;;1.35;;
22024;SDS011;11176;51.448;6.650;2022-08-11T16:53:36;2.22;;;1.27;;
22024;SDS011;11176;51.448;6.650;2022-08-11T16:59:23;3.15;;;1.67;;
22024;SDS011;11176;51.448;6.650;2022-08-11T17:01:55;3.88;;;1.40;;
22024;SDS011;11176;51.448;6.650;2022-08-11T17:04:51;3.45;;;1.42;;
22024;SDS011;11176;51.448;6.650;2022-08-11T17:07:38;5.20;;;2.03;;
22024;SDS011;11176;51.448;6.650;2022-08-11T17:10:28;3.63;;;1.88;;
22024;SDS011;11176;51.448;6.650;2022-08-11T17:13:28;2.42;;;1.52;;
22024;SDS011;11176;51.448;6.650;2022-08-11T17:16:02;2.72;;;1.27;;
22024;SDS011;11176;51.448;6.650;2022-08-11T17:18:52;3.50;;;2.10;;
22024;SDS011;11176;51.448;6.650;2022-08-11T17:21:30;5.78;;;2.17;;
22024;SDS011;11176;51.448;6.650;2022-08-11T17:26:41;5.22;;;2.30;;
22024;SDS011;11176;51.448;6.650;2022-08-11T17:29:22;2.80;;;1.80;;
22024;SDS011;11176;51.448;6.650;2022-08-11T17:31:51;11.52;;;2.88;;
22024;SDS011;11176;51.448;6.650;2022-08-11T17:34:39;15.93;;;4.03;;
22024;SDS011;11176;51.448;6.650;2022-08-11T17:37:30;11.35;;;3.35;;
22024;SDS011;11176;51.448;6.650;2022-08-11T17:39:59;9.57;;;3.33;;
22024;SDS011;11176;51.448;6.650;2022-08-11T17:42:30;11.05;;;2.70;;
22024;SDS011;11176;51.448;6.650;2022-08-11T17:45:16;15.55;;;4.20;;
22024;SDS011;11176;51.448;6.650;2022-08-11T17:48:03;6.72;;;2.35;;
22024;SDS011;11176;51.448;6.650;2022-08-11T17:50:59;4.30;;;1.90;;
22024;SDS011;11176;51.448;6.650;2022-08-11T17:53:36;3.05;;;1.90;;
22024;SDS011;11176;51.448;6.650;2022-08-11T17:56:44;4.00;;;2.30;;
22024;SDS011;11176;51.448;6.650;2022-08-11T17:59:30;7.32;;;2.10;;
22024;SDS011;11176;51.448;6.650;2022-08-11T18:02:18;9.05;;;2.50;;
22024;SDS011;11176;51.448;6.650;2022-08-11T18:05:08;20.77;;;6.00;;
22024;SDS011;11176;51.448;6.650;2022-08-11T18:07:40;26.77;;;7.53;;
22024;SDS011;11176;51.448;6.650;2022-08-11T18:10:27;22.90;;;6.78;;
22024;SDS011;11176;51.448;6.650;2022-08-11T18:13:15;28.48;;;7.65;;
22024;SDS011;11176;51.448;6.650;2022-08-11T18:16:03;13.70;;;4.28;;
22024;SDS011;11176;51.448;6.650;2022-08-11T18:18:48;4.53;;;2.40;;
22024;SDS011;11176;51.448;6.650;2022-08-11T18:21:34;4.80;;;2.00;;
22024;SDS011;11176;51.448;6.650;2022-08-11T18:24:42;4.75;;;2.40;;
22024;SDS011;11176;51.448;6.650;2022-08-11T18:27:32;4.20;;;2.10;;
22024;SDS011;11176;51.448;6.650;2022-08-11T18:30:19;6.15;;;2.08;;
22024;SDS011;11176;51.448;6.650;2022-08-11T18:33:05;6.35;;;2.28;;
22024;SDS011;11176;51.448;6.650;2022-08-11T18:36:14;5.53;;;2.33;;
22024;SDS011;11176;51.448;6.650;2022-08-11T18:39:05;4.75;;;2.20;;
22024;SDS011;11176;51.448;6.650;2022-08-11T18:41:57;7.70;;;2.70;;
22024;SDS011;11176;51.448;6.650;2022-08-11T18:44:56;4.80;;;2.15;;
22024;SDS011;11176;51.448;6.650;2022-08-11T18:47:45;3.78;;;2.05;;
22024;SDS011;11176;51.448;6.650;2022-08-11T18:50:36;4.75;;;2.55;;
22024;SDS011;11176;51.448;6.650;2022-08-11T18:53:44;4.95;;;2.28;;
22024;SDS011;11176;51.448;6.650;2022-08-11T18:56:34;8.98;;;2.35;;
22024;SDS011;11176;51.448;6.650;2022-08-11T18:59:21;4.60;;;2.53;;
22024;SDS011;11176;51.448;6.650;2022-08-11T19:02:10;3.95;;;2.50;;
22024;SDS011;11176;51.448;6.650;2022-08-11T19:04:58;6.10;;;2.65;;
22024;SDS011;11176;51.448;6.650;2022-08-11T19:08:05;7.22;;;2.42;;
22024;SDS011;11176;51.448;6.650;2022-08-11T19:10:53;8.93;;;2.60;;
22024;SDS011;11176;51.448;6.650;2022-08-11T19:13:44;5.95;;;2.55;;
22024;SDS011;11176;51.448;6.650;2022-08-11T19:16:31;5.00;;;2.38;;
22024;SDS011;11176;51.448;6.650;2022-08-11T19:19:19;4.95;;;2.58;;
22024;SDS011;11176;51.448;6.650;2022-08-11T19:22:12;3.90;;;2.30;;
22024;SDS011;11176;51.448;6.650;2022-08-11T19:24:57;3.70;;;2.63;;
22024;SDS011;11176;51.448;6.650;2022-08-11T19:27:50;3.30;;;2.30;;
22024;SDS011;11176;51.448;6.650;2022-08-11T19:30:37;6.28;;;2.65;;
22024;SDS011;11176;51.448;6.650;2022-08-11T19:33:23;8.73;;;2.60;;
22024;SDS011;11176;51.448;6.650;2022-08-11T19:36:30;4.60;;;2.67;;
22024;SDS011;11176;51.448;6.650;2022-08-11T19:39:18;5.43;;;2.20;;
22024;SDS011;11176;51.448;6.650;2022-08-11T19:42:06;4.82;;;2.10;;
22024;SDS011;11176;51.448;6.650;2022-08-11T19:44:53;3.80;;;2.40;;
22024;SDS011;11176;51.448;6.650;2022-08-11T19:47:40;4.38;;;2.38;;
22024;SDS011;11176;51.448;6.650;2022-08-11T19:50:47;5.53;;;2.63;;
22024;SDS011;11176;51.448;6.650;2022-08-11T19:53:34;7.13;;;2.45;;
22024;SDS011;11176;51.448;6.650;2022-08-11T19:56:20;4.53;;;2.33;;
22024;SDS011;11176;51.448;6.650;2022-08-11T19:59:06;4.25;;;2.42;;